sensor_id;sensor_type;location;lat;lon;timestamp;P1;durP1;ratioP1;P2;durP2;ratioP2
35257;SDS011;21385;50.878;8.050;2024-03-07T00:02:10;6.13;;;5.53;;
35257;SDS011;21385;50.878;8.050;2024-03-07T00:04:36;13.40;;;7.20;;
35257;SDS011;21385;50.878;8.050;2024-03-07T00:07:02;7.97;;;4.95;;
35257;SDS011;21385;50.878;8.050;2024-03-07T00:09:29;7.25;;;6.15;;
35257;SDS011;21385;50.878;8.050;2024-03-07T00:11:58;10.60;;;6.45;;
35257;SDS011;21385;50.878;8.050;2024-03-07T00:14:24;6.75;;;5.07;;
35257;SDS011;21385;50.878;8.050;2024-03-07T00:16:53;5.68;;;5.25;;
35257;SDS011;21385;50.878;8.050;2024-03-07T00:19:19;8.35;;;5.90;;
35257;SDS011;21385;50.878;8.050;2024-03-07T00:21:46;12.18;;;6.43;;
35257;SDS011;21385;50.878;8.050;2024-03-07T00:24:12;10.63;;;5.97;;
35257;SDS011;21385;50.878;8.050;2024-03-07T00:26:39;19.88;;;8.95;;
35257;SDS011;21385;50.878;8.050;2024-03-07T00:29:06;27.33;;;8.50;;
35257;SDS011;21385;50.878;8.050;2024-03-07T00:31:31;11.20;;;7.53;;
35257;SDS011;21385;50.878;8.050;2024-03-07T00:33:58;7.47;;;6.53;;
35257;SDS011;21385;50.878;8.050;2024-03-07T00:36:23;13.45;;;5.32;;
35257;SDS011;21385;50.878;8.050;2024-03-07T00:38:49;10.05;;;5.93;;
35257;SDS011;21385;50.878;8.050;2024-03-07T00:41:15;7.57;;;6.32;;
35257;SDS011;21385;50.878;8.050;2024-03-07T00:43:42;8.75;;;6.55;;
35257;SDS011;21385;50.878;8.050;2024-03-07T00:46:07;5.63;;;5.20;;
35257;SDS011;21385;50.878;8.050;2024-03-07T00:48:35;22.63;;;7.32;;
35257;SDS011;21385;50.878;8.050;2024-03-07T00:51:01;7.57;;;6.07;;
35257;SDS011;21385;50.878;8.050;2024-03-07T00:53:29;7.28;;;5.80;;
35257;SDS011;21385;50.878;8.050;2024-03-07T00:55:54;9.85;;;6.18;;
35257;SDS011;21385;50.878;8.050;2024-03-07T00:58:20;7.82;;;6.88;;
35257;SDS011;21385;50.878;8.050;2024-03-07T01:00:46;7.63;;;6.18;;
35257;SDS011;21385;50.878;8.050;2024-03-07T01:03:12;11.73;;;6.53;;
35257;SDS011;21385;50.878;8.050;2024-03-07T01:05:39;5.35;;;4.72;;
35257;SDS011;21385;50.878;8.050;2024-03-07T01:08:05;11.77;;;4.93;;
35257;SDS011;21385;50.878;8.050;2024-03-07T01:10:31;6.60;;;5.40;;
35257;SDS011;21385;50.878;8.050;2024-03-07T01:12:57;9.50;;;7.78;;
35257;SDS011;21385;50.878;8.050;2024-03-07T01:15:26;7.72;;;5.00;;
35257;SDS011;21385;50.878;8.050;2024-03-07T01:17:52;6.07;;;5.20;;
35257;SDS011;21385;50.878;8.050;2024-03-07T01:20:18;5.25;;;4.80;;
35257;SDS011;21385;50.878;8.050;2024-03-07T01:22:43;6.32;;;5.25;;
35257;SDS011;21385;50.878;8.050;2024-03-07T01:25:09;6.80;;;5.93;;
35257;SDS011;21385;50.878;8.050;2024-03-07T01:27:35;8.38;;;5.78;;
35257;SDS011;21385;50.878;8.050;2024-03-07T01:30:00;10.40;;;6.78;;
35257;SDS011;21385;50.878;8.050;2024-03-07T01:32:26;6.63;;;5.88;;
35257;SDS011;21385;50.878;8.050;2024-03-07T01:34:53;8.73;;;6.05;;
35257;SDS011;21385;50.878;8.050;2024-03-07T01:37:19;5.47;;;4.85;;
35257;SDS011;21385;50.878;8.050;2024-03-07T01:39:45;8.88;;;6.22;;
35257;SDS011;21385;50.878;8.050;2024-03-07T01:42:11;7.07;;;4.75;;
35257;SDS011;21385;50.878;8.050;2024-03-07T01:44:37;6.28;;;5.68;;
35257;SDS011;21385;50.878;8.050;2024-03-07T01:47:05;10.15;;;6.10;;
35257;SDS011;21385;50.878;8.050;2024-03-07T01:49:31;7.05;;;5.97;;
35257;SDS011;21385;50.878;8.050;2024-03-07T01:51:57;6.22;;;4.57;;
35257;SDS011;21385;50.878;8.050;2024-03-07T01:54:23;8.45;;;4.38;;
35257;SDS011;21385;50.878;8.050;2024-03-07T01:56:49;8.48;;;5.55;;
35257;SDS011;21385;50.878;8.050;2024-03-07T01:59:16;7.90;;;5.28;;
35257;SDS011;21385;50.878;8.050;2024-03-07T02:01:42;7.45;;;5.95;;
35257;SDS011;21385;50.878;8.050;2024-03-07T02:04:08;8.80;;;6.20;;
35257;SDS011;21385;50.878;8.050;2024-03-07T02:06:34;7.60;;;6.72;;
35257;SDS011;21385;50.878;8.050;2024-03-07T02:09:00;4.80;;;4.25;;
35257;SDS011;21385;50.878;8.050;2024-03-07T02:11:27;6.60;;;5.75;;
35257;SDS011;21385;50.878;8.050;2024-03-07T02:13:53;7.13;;;5.10;;
35257;SDS011;21385;50.878;8.050;2024-03-07T02:16:18;14.57;;;5.95;;
35257;SDS011;21385;50.878;8.050;2024-03-07T02:18:45;17.13;;;7.00;;
35257;SDS011;21385;50.878;8.050;2024-03-07T02:21:11;9.38;;;5.57;;
35257;SDS011;21385;50.878;8.050;2024-03-07T02:23:37;6.15;;;4.85;;
35257;SDS011;21385;50.878;8.050;2024-03-07T02:26:03;3.42;;;3.13;;
35257;SDS011;21385;50.878;8.050;2024-03-07T02:28:29;11.60;;;6.78;;
35257;SDS011;21385;50.878;8.050;2024-03-07T02:30:54;10.68;;;7.03;;
35257;SDS011;21385;50.878;8.050;2024-03-07T02:33:20;6.93;;;6.20;;
35257;SDS011;21385;50.878;8.050;2024-03-07T02:35:46;7.18;;;6.30;;
35257;SDS011;21385;50.878;8.050;2024-03-07T02:38:14;7.90;;;7.07;;
35257;SDS011;21385;50.878;8.050;2024-03-07T02:40:39;10.07;;;7.53;;
35257;SDS011;21385;50.878;8.050;2024-03-07T02:43:05;9.68;;;6.88;;
35257;SDS011;21385;50.878;8.050;2024-03-07T02:45:32;7.57;;;6.78;;
35257;SDS011;21385;50.878;8.050;2024-03-07T02:47:57;6.22;;;5.60;;
35257;SDS011;21385;50.878;8.050;2024-03-07T02:50:23;5.75;;;5.25;;
35257;SDS011;21385;50.878;8.050;2024-03-07T02:52:49;8.23;;;6.28;;
35257;SDS011;21385;50.878;8.050;2024-03-07T02:55:17;5.80;;;5.25;;
35257;SDS011;21385;50.878;8.050;2024-03-07T02:57:44;7.45;;;5.72;;
35257;SDS011;21385;50.878;8.050;2024-03-07T03:00:10;9.35;;;4.97;;
35257;SDS011;21385;50.878;8.050;2024-03-07T03:02:46;6.35;;;5.75;;
35257;SDS011;21385;50.878;8.050;2024-03-07T03:05:12;6.53;;;4.85;;
35257;SDS011;21385;50.878;8.050;2024-03-07T03:07:39;10.43;;;6.18;;
35257;SDS011;21385;50.878;8.050;2024-03-07T03:10:06;5.97;;;5.43;;
35257;SDS011;21385;50.878;8.050;2024-03-07T03:12:34;7.32;;;5.28;;
35257;SDS011;21385;50.878;8.050;2024-03-07T03:15:02;8.07;;;5.07;;
35257;SDS011;21385;50.878;8.050;2024-03-07T03:17:31;5.63;;;4.90;;
35257;SDS011;21385;50.878;8.050;2024-03-07T03:19:57;5.85;;;4.63;;
35257;SDS011;21385;50.878;8.050;2024-03-07T03:22:22;6.82;;;6.13;;
35257;SDS011;21385;50.878;8.050;2024-03-07T03:24:48;16.05;;;7.50;;
35257;SDS011;21385;50.878;8.050;2024-03-07T03:27:13;7.63;;;6.18;;
35257;SDS011;21385;50.878;8.050;2024-03-07T03:29:39;16.73;;;7.43;;
35257;SDS011;21385;50.878;8.050;2024-03-07T03:32:05;10.02;;;6.90;;
35257;SDS011;21385;50.878;8.050;2024-03-07T03:34:32;10.63;;;6.68;;
35257;SDS011;21385;50.878;8.050;2024-03-07T03:36:58;7.20;;;6.28;;
35257;SDS011;21385;50.878;8.050;2024-03-07T03:39:24;14.52;;;8.93;;
35257;SDS011;21385;50.878;8.050;2024-03-07T03:41:52;9.90;;;7.72;;
35257;SDS011;21385;50.878;8.050;2024-03-07T03:44:17;15.73;;;8.82;;
35257;SDS011;21385;50.878;8.050;2024-03-07T03:46:43;7.65;;;6.93;;
35257;SDS011;21385;50.878;8.050;2024-03-07T03:49:09;9.52;;;7.30;;
35257;SDS011;21385;50.878;8.050;2024-03-07T03:51:35;7.43;;;6.00;;
35257;SDS011;21385;50.878;8.050;2024-03-07T03:54:01;11.93;;;7.65;;
35257;SDS011;21385;50.878;8.050;2024-03-07T03:56:27;7.32;;;6.18;;
35257;SDS011;21385;50.878;8.050;2024-03-07T03:58:52;10.80;;;6.35;;
35257;SDS011;21385;50.878;8.050;2024-03-07T04:01:18;6.40;;;5.80;;
35257;SDS011;21385;50.878;8.050;2024-03-07T04:03:44;8.88;;;5.95;;
35257;SDS011;21385;50.878;8.050;2024-03-07T04:06:11;9.65;;;7.13;;
35257;SDS011;21385;50.878;8.050;2024-03-07T04:08:37;13.95;;;7.85;;
35257;SDS011;21385;50.878;8.050;2024-03-07T04:11:03;7.45;;;6.78;;
35257;SDS011;21385;50.878;8.050;2024-03-07T04:13:29;8.15;;;6.05;;
35257;SDS011;21385;50.878;8.050;2024-03-07T04:15:56;10.05;;;6.80;;
35257;SDS011;21385;50.878;8.050;2024-03-07T04:18:22;5.38;;;4.25;;
35257;SDS011;21385;50.878;8.050;2024-03-07T04:20:47;8.13;;;7.03;;
35257;SDS011;21385;50.878;8.050;2024-03-07T04:23:13;9.40;;;5.95;;
35257;SDS011;21385;50.878;8.050;2024-03-07T04:25:39;9.85;;;7.03;;
35257;SDS011;21385;50.878;8.050;2024-03-07T04:28:04;14.73;;;5.22;;
35257;SDS011;21385;50.878;8.050;2024-03-07T04:30:30;22.25;;;7.70;;
35257;SDS011;21385;50.878;8.050;2024-03-07T04:32:55;6.20;;;5.70;;
35257;SDS011;21385;50.878;8.050;2024-03-07T04:35:23;8.68;;;6.20;;
35257;SDS011;21385;50.878;8.050;2024-03-07T04:37:49;9.00;;;7.70;;
35257;SDS011;21385;50.878;8.050;2024-03-07T04:40:15;12.52;;;5.10;;
35257;SDS011;21385;50.878;8.050;2024-03-07T04:42:47;8.02;;;6.03;;
35257;SDS011;21385;50.878;8.050;2024-03-07T04:45:17;7.47;;;6.20;;
35257;SDS011;21385;50.878;8.050;2024-03-07T04:47:43;8.43;;;7.40;;
35257;SDS011;21385;50.878;8.050;2024-03-07T04:50:10;14.00;;;7.15;;
35257;SDS011;21385;50.878;8.050;2024-03-07T04:52:36;8.88;;;7.07;;
35257;SDS011;21385;50.878;8.050;2024-03-07T04:55:03;11.88;;;6.28;;
35257;SDS011;21385;50.878;8.050;2024-03-07T04:57:30;8.90;;;6.78;;
35257;SDS011;21385;50.878;8.050;2024-03-07T04:59:55;9.40;;;6.15;;
35257;SDS011;21385;50.878;8.050;2024-03-07T05:02:21;6.90;;;6.25;;
35257;SDS011;21385;50.878;8.050;2024-03-07T05:04:48;6.00;;;5.57;;
35257;SDS011;21385;50.878;8.050;2024-03-07T05:07:15;7.20;;;6.47;;
35257;SDS011;21385;50.878;8.050;2024-03-07T05:09:41;7.60;;;5.80;;
35257;SDS011;21385;50.878;8.050;2024-03-07T05:12:06;6.40;;;5.90;;
35257;SDS011;21385;50.878;8.050;2024-03-07T05:14:32;5.25;;;4.75;;
35257;SDS011;21385;50.878;8.050;2024-03-07T05:16:58;15.45;;;7.70;;
35257;SDS011;21385;50.878;8.050;2024-03-07T05:21:58;5.28;;;4.68;;
35257;SDS011;21385;50.878;8.050;2024-03-07T05:24:24;10.27;;;6.43;;
35257;SDS011;21385;50.878;8.050;2024-03-07T05:26:50;6.30;;;5.80;;
35257;SDS011;21385;50.878;8.050;2024-03-07T05:29:17;11.07;;;5.20;;
35257;SDS011;21385;50.878;8.050;2024-03-07T05:31:43;7.97;;;5.82;;
35257;SDS011;21385;50.878;8.050;2024-03-07T05:34:12;7.55;;;5.65;;
35257;SDS011;21385;50.878;8.050;2024-03-07T05:36:39;8.27;;;4.97;;
35257;SDS011;21385;50.878;8.050;2024-03-07T05:39:12;17.17;;;7.13;;
35257;SDS011;21385;50.878;8.050;2024-03-07T05:41:39;6.63;;;5.30;;
35257;SDS011;21385;50.878;8.050;2024-03-07T05:44:05;9.93;;;6.68;;
35257;SDS011;21385;50.878;8.050;2024-03-07T05:46:34;8.95;;;5.65;;
35257;SDS011;21385;50.878;8.050;2024-03-07T05:49:09;7.70;;;6.60;;
35257;SDS011;21385;50.878;8.050;2024-03-07T05:51:35;4.75;;;4.38;;
35257;SDS011;21385;50.878;8.050;2024-03-07T05:54:01;5.70;;;4.35;;
35257;SDS011;21385;50.878;8.050;2024-03-07T05:56:31;11.43;;;5.47;;
35257;SDS011;21385;50.878;8.050;2024-03-07T05:59:01;6.05;;;5.18;;
35257;SDS011;21385;50.878;8.050;2024-03-07T06:01:29;10.38;;;7.68;;
35257;SDS011;21385;50.878;8.050;2024-03-07T06:03:59;6.20;;;5.53;;
35257;SDS011;21385;50.878;8.050;2024-03-07T06:06:25;11.48;;;7.35;;
35257;SDS011;21385;50.878;8.050;2024-03-07T06:08:52;9.55;;;6.13;;
35257;SDS011;21385;50.878;8.050;2024-03-07T06:11:18;5.45;;;4.97;;
35257;SDS011;21385;50.878;8.050;2024-03-07T06:13:46;9.85;;;6.53;;
35257;SDS011;21385;50.878;8.050;2024-03-07T06:16:12;6.75;;;5.95;;
35257;SDS011;21385;50.878;8.050;2024-03-07T06:18:39;6.50;;;5.90;;
35257;SDS011;21385;50.878;8.050;2024-03-07T06:21:07;8.60;;;6.80;;
35257;SDS011;21385;50.878;8.050;2024-03-07T06:23:33;8.00;;;7.07;;
35257;SDS011;21385;50.878;8.050;2024-03-07T06:25:59;7.25;;;5.95;;
35257;SDS011;21385;50.878;8.050;2024-03-07T06:28:25;6.95;;;6.18;;
35257;SDS011;21385;50.878;8.050;2024-03-07T06:30:54;6.35;;;4.75;;
35257;SDS011;21385;50.878;8.050;2024-03-07T06:33:20;7.70;;;6.10;;
35257;SDS011;21385;50.878;8.050;2024-03-07T06:35:47;12.60;;;5.40;;
35257;SDS011;21385;50.878;8.050;2024-03-07T06:38:13;9.50;;;8.45;;
35257;SDS011;21385;50.878;8.050;2024-03-07T06:40:39;7.38;;;5.43;;
35257;SDS011;21385;50.878;8.050;2024-03-07T06:43:07;9.52;;;6.13;;
35257;SDS011;21385;50.878;8.050;2024-03-07T06:45:35;11.63;;;6.38;;
35257;SDS011;21385;50.878;8.050;2024-03-07T06:48:01;7.35;;;6.18;;
35257;SDS011;21385;50.878;8.050;2024-03-07T06:50:28;7.28;;;4.97;;
35257;SDS011;21385;50.878;8.050;2024-03-07T06:52:54;12.32;;;6.97;;
35257;SDS011;21385;50.878;8.050;2024-03-07T06:55:21;12.07;;;6.25;;
35257;SDS011;21385;50.878;8.050;2024-03-07T06:57:46;14.10;;;7.95;;
35257;SDS011;21385;50.878;8.050;2024-03-07T07:00:12;7.95;;;7.30;;
35257;SDS011;21385;50.878;8.050;2024-03-07T07:02:43;15.98;;;6.75;;
35257;SDS011;21385;50.878;8.050;2024-03-07T07:05:09;7.35;;;6.65;;
35257;SDS011;21385;50.878;8.050;2024-03-07T07:07:40;11.05;;;6.00;;
35257;SDS011;21385;50.878;8.050;2024-03-07T07:10:07;7.05;;;6.45;;
35257;SDS011;21385;50.878;8.050;2024-03-07T07:12:34;11.75;;;7.15;;
35257;SDS011;21385;50.878;8.050;2024-03-07T07:15:01;12.32;;;8.23;;
35257;SDS011;21385;50.878;8.050;2024-03-07T07:17:28;13.93;;;7.50;;
35257;SDS011;21385;50.878;8.050;2024-03-07T07:19:54;12.77;;;5.85;;
35257;SDS011;21385;50.878;8.050;2024-03-07T07:22:21;9.40;;;7.07;;
35257;SDS011;21385;50.878;8.050;2024-03-07T07:24:46;17.08;;;7.75;;
35257;SDS011;21385;50.878;8.050;2024-03-07T07:27:12;14.88;;;8.13;;
35257;SDS011;21385;50.878;8.050;2024-03-07T07:29:38;10.27;;;8.75;;
35257;SDS011;21385;50.878;8.050;2024-03-07T07:32:04;10.82;;;7.40;;
35257;SDS011;21385;50.878;8.050;2024-03-07T07:34:30;14.52;;;8.18;;
35257;SDS011;21385;50.878;8.050;2024-03-07T07:36:55;9.93;;;7.78;;
35257;SDS011;21385;50.878;8.050;2024-03-07T07:39:21;11.40;;;8.25;;
35257;SDS011;21385;50.878;8.050;2024-03-07T07:41:47;9.80;;;7.20;;
35257;SDS011;21385;50.878;8.050;2024-03-07T07:44:13;8.18;;;7.45;;
35257;SDS011;21385;50.878;8.050;2024-03-07T07:46:39;11.18;;;8.90;;
35257;SDS011;21385;50.878;8.050;2024-03-07T07:49:05;13.88;;;9.20;;
35257;SDS011;21385;50.878;8.050;2024-03-07T07:51:31;9.32;;;8.18;;
35257;SDS011;21385;50.878;8.050;2024-03-07T07:53:57;9.55;;;8.23;;
35257;SDS011;21385;50.878;8.050;2024-03-07T07:56:22;8.35;;;7.53;;
35257;SDS011;21385;50.878;8.050;2024-03-07T07:58:49;8.88;;;8.07;;
35257;SDS011;21385;50.878;8.050;2024-03-07T08:01:16;8.20;;;6.32;;
35257;SDS011;21385;50.878;8.050;2024-03-07T08:03:42;11.25;;;9.35;;
35257;SDS011;21385;50.878;8.050;2024-03-07T08:06:11;12.68;;;8.60;;
35257;SDS011;21385;50.878;8.050;2024-03-07T08:08:36;11.38;;;7.43;;
35257;SDS011;21385;50.878;8.050;2024-03-07T08:11:02;14.10;;;8.23;;
35257;SDS011;21385;50.878;8.050;2024-03-07T08:13:28;13.50;;;6.75;;
35257;SDS011;21385;50.878;8.050;2024-03-07T08:15:53;9.90;;;8.90;;
35257;SDS011;21385;50.878;8.050;2024-03-07T08:18:19;10.25;;;7.85;;
35257;SDS011;21385;50.878;8.050;2024-03-07T08:20:45;7.85;;;7.15;;
35257;SDS011;21385;50.878;8.050;2024-03-07T08:23:11;8.52;;;7.68;;
35257;SDS011;21385;50.878;8.050;2024-03-07T08:25:38;11.73;;;8.40;;
35257;SDS011;21385;50.878;8.050;2024-03-07T08:28:05;16.90;;;10.27;;
35257;SDS011;21385;50.878;8.050;2024-03-07T08:30:31;13.70;;;8.52;;
35257;SDS011;21385;50.878;8.050;2024-03-07T08:32:57;12.35;;;8.55;;
35257;SDS011;21385;50.878;8.050;2024-03-07T08:35:30;10.25;;;8.57;;
35257;SDS011;21385;50.878;8.050;2024-03-07T08:37:56;10.75;;;8.90;;
35257;SDS011;21385;50.878;8.050;2024-03-07T08:40:29;13.45;;;8.43;;
35257;SDS011;21385;50.878;8.050;2024-03-07T08:42:59;17.30;;;8.07;;
35257;SDS011;21385;50.878;8.050;2024-03-07T08:45:25;9.82;;;6.60;;
35257;SDS011;21385;50.878;8.050;2024-03-07T08:47:53;8.50;;;7.70;;
35257;SDS011;21385;50.878;8.050;2024-03-07T08:50:20;6.15;;;5.35;;
35257;SDS011;21385;50.878;8.050;2024-03-07T08:52:46;11.27;;;7.25;;
35257;SDS011;21385;50.878;8.050;2024-03-07T08:55:13;12.27;;;6.35;;
35257;SDS011;21385;50.878;8.050;2024-03-07T08:57:40;8.32;;;6.57;;
35257;SDS011;21385;50.878;8.050;2024-03-07T09:00:07;10.75;;;7.55;;
35257;SDS011;21385;50.878;8.050;2024-03-07T09:02:36;6.22;;;5.72;;
35257;SDS011;21385;50.878;8.050;2024-03-07T09:05:03;7.28;;;6.45;;
35257;SDS011;21385;50.878;8.050;2024-03-07T09:07:29;12.65;;;7.63;;
35257;SDS011;21385;50.878;8.050;2024-03-07T09:09:55;10.50;;;6.63;;
35257;SDS011;21385;50.878;8.050;2024-03-07T09:12:21;14.73;;;6.47;;
35257;SDS011;21385;50.878;8.050;2024-03-07T09:14:47;9.65;;;6.05;;
35257;SDS011;21385;50.878;8.050;2024-03-07T09:17:12;13.02;;;7.07;;
35257;SDS011;21385;50.878;8.050;2024-03-07T09:19:38;6.82;;;5.47;;
35257;SDS011;21385;50.878;8.050;2024-03-07T09:22:04;13.25;;;6.93;;
35257;SDS011;21385;50.878;8.050;2024-03-07T09:24:33;12.50;;;6.28;;
35257;SDS011;21385;50.878;8.050;2024-03-07T09:26:59;14.25;;;5.53;;
35257;SDS011;21385;50.878;8.050;2024-03-07T09:29:25;9.35;;;5.43;;
35257;SDS011;21385;50.878;8.050;2024-03-07T09:31:52;9.18;;;5.80;;
35257;SDS011;21385;50.878;8.050;2024-03-07T09:34:19;12.40;;;4.93;;
35257;SDS011;21385;50.878;8.050;2024-03-07T09:36:46;14.25;;;6.85;;
35257;SDS011;21385;50.878;8.050;2024-03-07T09:39:15;7.47;;;5.75;;
35257;SDS011;21385;50.878;8.050;2024-03-07T09:41:41;8.45;;;6.45;;
35257;SDS011;21385;50.878;8.050;2024-03-07T09:44:17;9.40;;;6.30;;
35257;SDS011;21385;50.878;8.050;2024-03-07T09:49:15;21.88;;;5.82;;
35257;SDS011;21385;50.878;8.050;2024-03-07T09:51:43;13.00;;;6.63;;
35257;SDS011;21385;50.878;8.050;2024-03-07T09:54:10;9.23;;;6.20;;
35257;SDS011;21385;50.878;8.050;2024-03-07T09:56:35;11.65;;;6.82;;
35257;SDS011;21385;50.878;8.050;2024-03-07T09:59:02;5.95;;;5.05;;
35257;SDS011;21385;50.878;8.050;2024-03-07T10:01:30;10.85;;;6.43;;
35257;SDS011;21385;50.878;8.050;2024-03-07T10:03:59;7.07;;;5.50;;
35257;SDS011;21385;50.878;8.050;2024-03-07T10:06:35;18.05;;;7.35;;
35257;SDS011;21385;50.878;8.050;2024-03-07T10:09:01;13.10;;;5.80;;
35257;SDS011;21385;50.878;8.050;2024-03-07T10:11:26;8.43;;;6.63;;
35257;SDS011;21385;50.878;8.050;2024-03-07T10:13:52;8.25;;;5.57;;
35257;SDS011;21385;50.878;8.050;2024-03-07T10:16:18;7.95;;;5.90;;
35257;SDS011;21385;50.878;8.050;2024-03-07T10:18:43;5.82;;;4.88;;
35257;SDS011;21385;50.878;8.050;2024-03-07T10:21:12;6.82;;;4.55;;
35257;SDS011;21385;50.878;8.050;2024-03-07T10:23:39;7.18;;;4.88;;
35257;SDS011;21385;50.878;8.050;2024-03-07T10:26:05;15.55;;;5.57;;
35257;SDS011;21385;50.878;8.050;2024-03-07T10:28:31;7.53;;;5.45;;
35257;SDS011;21385;50.878;8.050;2024-03-07T10:30:58;4.70;;;3.95;;
35257;SDS011;21385;50.878;8.050;2024-03-07T10:33:28;9.48;;;5.35;;
35257;SDS011;21385;50.878;8.050;2024-03-07T10:35:57;9.48;;;5.80;;
35257;SDS011;21385;50.878;8.050;2024-03-07T10:38:23;5.53;;;5.03;;
35257;SDS011;21385;50.878;8.050;2024-03-07T10:40:52;8.02;;;5.07;;
35257;SDS011;21385;50.878;8.050;2024-03-07T10:43:20;10.57;;;6.18;;
35257;SDS011;21385;50.878;8.050;2024-03-07T10:45:46;9.68;;;5.38;;
35257;SDS011;21385;50.878;8.050;2024-03-07T10:48:13;10.43;;;5.80;;
35257;SDS011;21385;50.878;8.050;2024-03-07T11:01:38;5.85;;;5.28;;
35257;SDS011;21385;50.878;8.050;2024-03-07T11:04:09;8.18;;;5.10;;
35257;SDS011;21385;50.878;8.050;2024-03-07T11:06:39;11.70;;;5.28;;
35257;SDS011;21385;50.878;8.050;2024-03-07T11:09:06;5.90;;;4.90;;
35257;SDS011;21385;50.878;8.050;2024-03-07T11:11:36;5.35;;;4.82;;
35257;SDS011;21385;50.878;8.050;2024-03-07T11:14:03;8.73;;;5.65;;
35257;SDS011;21385;50.878;8.050;2024-03-07T11:16:29;8.00;;;4.68;;
35257;SDS011;21385;50.878;8.050;2024-03-07T11:21:52;7.15;;;4.63;;
35257;SDS011;21385;50.878;8.050;2024-03-07T11:24:26;8.63;;;4.38;;
35257;SDS011;21385;50.878;8.050;2024-03-07T11:26:57;4.55;;;3.55;;
35257;SDS011;21385;50.878;8.050;2024-03-07T11:29:43;6.05;;;5.50;;
35257;SDS011;21385;50.878;8.050;2024-03-07T11:32:12;5.43;;;4.90;;
35257;SDS011;21385;50.878;8.050;2024-03-07T11:34:42;11.82;;;5.13;;
35257;SDS011;21385;50.878;8.050;2024-03-07T11:37:18;10.57;;;5.80;;
35257;SDS011;21385;50.878;8.050;2024-03-07T11:40:06;9.82;;;4.63;;
35257;SDS011;21385;50.878;8.050;2024-03-07T11:42:33;6.45;;;4.60;;
35257;SDS011;21385;50.878;8.050;2024-03-07T11:45:01;6.95;;;5.50;;
35257;SDS011;21385;50.878;8.050;2024-03-07T11:47:37;7.47;;;4.67;;
35257;SDS011;21385;50.878;8.050;2024-03-07T11:50:07;6.43;;;3.85;;
35257;SDS011;21385;50.878;8.050;2024-03-07T11:52:39;3.58;;;3.28;;
35257;SDS011;21385;50.878;8.050;2024-03-07T11:55:09;6.63;;;3.50;;
35257;SDS011;21385;50.878;8.050;2024-03-07T11:57:36;5.88;;;4.00;;
35257;SDS011;21385;50.878;8.050;2024-03-07T12:00:02;6.00;;;3.78;;
35257;SDS011;21385;50.878;8.050;2024-03-07T12:02:36;9.60;;;5.00;;
35257;SDS011;21385;50.878;8.050;2024-03-07T12:05:03;4.80;;;3.80;;
35257;SDS011;21385;50.878;8.050;2024-03-07T12:07:32;4.57;;;3.83;;
35257;SDS011;21385;50.878;8.050;2024-03-07T12:10:03;3.88;;;3.25;;
35257;SDS011;21385;50.878;8.050;2024-03-07T12:12:30;5.93;;;3.30;;
35257;SDS011;21385;50.878;8.050;2024-03-07T12:14:56;5.45;;;4.47;;
35257;SDS011;21385;50.878;8.050;2024-03-07T12:17:22;4.70;;;4.30;;
35257;SDS011;21385;50.878;8.050;2024-03-07T12:19:48;4.47;;;4.07;;
35257;SDS011;21385;50.878;8.050;2024-03-07T12:22:20;6.20;;;4.85;;
35257;SDS011;21385;50.878;8.050;2024-03-07T12:25:02;2.90;;;2.70;;
35257;SDS011;21385;50.878;8.050;2024-03-07T12:27:28;5.82;;;3.10;;
35257;SDS011;21385;50.878;8.050;2024-03-07T12:29:58;3.97;;;3.30;;
35257;SDS011;21385;50.878;8.050;2024-03-07T12:32:27;3.55;;;3.25;;
35257;SDS011;21385;50.878;8.050;2024-03-07T12:34:52;5.72;;;3.88;;
35257;SDS011;21385;50.878;8.050;2024-03-07T12:37:18;3.60;;;3.22;;
35257;SDS011;21385;50.878;8.050;2024-03-07T12:39:44;4.70;;;3.17;;
35257;SDS011;21385;50.878;8.050;2024-03-07T12:42:14;4.72;;;3.53;;
35257;SDS011;21385;50.878;8.050;2024-03-07T12:44:42;6.03;;;4.22;;
35257;SDS011;21385;50.878;8.050;2024-03-07T12:47:10;9.73;;;6.00;;
35257;SDS011;21385;50.878;8.050;2024-03-07T12:49:38;6.20;;;3.85;;
35257;SDS011;21385;50.878;8.050;2024-03-07T12:52:04;6.97;;;3.65;;
35257;SDS011;21385;50.878;8.050;2024-03-07T12:54:31;3.97;;;3.10;;
35257;SDS011;21385;50.878;8.050;2024-03-07T12:56:56;4.82;;;3.92;;
35257;SDS011;21385;50.878;8.050;2024-03-07T12:59:22;4.05;;;3.42;;
35257;SDS011;21385;50.878;8.050;2024-03-07T13:01:49;6.15;;;5.22;;
35257;SDS011;21385;50.878;8.050;2024-03-07T13:04:15;7.22;;;4.03;;
35257;SDS011;21385;50.878;8.050;2024-03-07T13:06:41;7.35;;;4.00;;
35257;SDS011;21385;50.878;8.050;2024-03-07T13:09:12;7.20;;;3.67;;
35257;SDS011;21385;50.878;8.050;2024-03-07T13:11:38;4.72;;;3.70;;
35257;SDS011;21385;50.878;8.050;2024-03-07T13:14:11;7.00;;;4.40;;
35257;SDS011;21385;50.878;8.050;2024-03-07T13:16:37;4.22;;;3.63;;
35257;SDS011;21385;50.878;8.050;2024-03-07T13:19:03;9.15;;;4.07;;
35257;SDS011;21385;50.878;8.050;2024-03-07T13:21:30;7.65;;;4.03;;
35257;SDS011;21385;50.878;8.050;2024-03-07T13:23:57;6.13;;;4.28;;
35257;SDS011;21385;50.878;8.050;2024-03-07T13:26:23;6.07;;;4.72;;
35257;SDS011;21385;50.878;8.050;2024-03-07T13:28:50;5.97;;;4.03;;
35257;SDS011;21385;50.878;8.050;2024-03-07T13:31:18;8.38;;;4.05;;
35257;SDS011;21385;50.878;8.050;2024-03-07T13:33:44;3.65;;;3.35;;
35257;SDS011;21385;50.878;8.050;2024-03-07T13:36:10;8.38;;;5.20;;
35257;SDS011;21385;50.878;8.050;2024-03-07T13:38:39;8.20;;;4.32;;
35257;SDS011;21385;50.878;8.050;2024-03-07T13:41:05;6.95;;;4.15;;
35257;SDS011;21385;50.878;8.050;2024-03-07T13:43:31;9.60;;;5.30;;
35257;SDS011;21385;50.878;8.050;2024-03-07T13:45:58;9.02;;;4.95;;
35257;SDS011;21385;50.878;8.050;2024-03-07T13:48:25;9.45;;;4.15;;
35257;SDS011;21385;50.878;8.050;2024-03-07T13:50:50;13.10;;;4.68;;
35257;SDS011;21385;50.878;8.050;2024-03-07T13:53:18;9.50;;;4.88;;
35257;SDS011;21385;50.878;8.050;2024-03-07T13:58:30;9.05;;;5.03;;
35257;SDS011;21385;50.878;8.050;2024-03-07T14:07:08;6.72;;;4.40;;
35257;SDS011;21385;50.878;8.050;2024-03-07T14:28:05;8.13;;;4.00;;
35257;SDS011;21385;50.878;8.050;2024-03-07T14:30:55;10.52;;;4.13;;
35257;SDS011;21385;50.878;8.050;2024-03-07T14:36:16;6.32;;;5.00;;
35257;SDS011;21385;50.878;8.050;2024-03-07T14:38:47;4.35;;;3.95;;
35257;SDS011;21385;50.878;8.050;2024-03-07T14:41:20;8.45;;;5.22;;
35257;SDS011;21385;50.878;8.050;2024-03-07T14:44:04;5.32;;;4.82;;
35257;SDS011;21385;50.878;8.050;2024-03-07T14:46:32;4.75;;;4.00;;
35257;SDS011;21385;50.878;8.050;2024-03-07T14:48:58;4.55;;;3.97;;
35257;SDS011;21385;50.878;8.050;2024-03-07T14:51:24;7.43;;;3.92;;
35257;SDS011;21385;50.878;8.050;2024-03-07T14:53:51;12.27;;;5.00;;
35257;SDS011;21385;50.878;8.050;2024-03-07T14:56:16;5.22;;;4.72;;
35257;SDS011;21385;50.878;8.050;2024-03-07T14:58:44;5.05;;;4.22;;
35257;SDS011;21385;50.878;8.050;2024-03-07T15:01:10;5.03;;;3.97;;
35257;SDS011;21385;50.878;8.050;2024-03-07T15:03:38;12.52;;;4.40;;
35257;SDS011;21385;50.878;8.050;2024-03-07T15:06:06;7.90;;;4.53;;
35257;SDS011;21385;50.878;8.050;2024-03-07T15:08:34;5.90;;;5.22;;
35257;SDS011;21385;50.878;8.050;2024-03-07T15:11:06;8.55;;;4.85;;
35257;SDS011;21385;50.878;8.050;2024-03-07T15:13:38;4.38;;;3.88;;
35257;SDS011;21385;50.878;8.050;2024-03-07T15:16:04;5.20;;;3.65;;
35257;SDS011;21385;50.878;8.050;2024-03-07T15:18:31;10.18;;;5.43;;
35257;SDS011;21385;50.878;8.050;2024-03-07T15:20:56;10.05;;;4.82;;
35257;SDS011;21385;50.878;8.050;2024-03-07T15:23:22;7.20;;;4.65;;
35257;SDS011;21385;50.878;8.050;2024-03-07T15:25:48;8.57;;;5.15;;
35257;SDS011;21385;50.878;8.050;2024-03-07T15:28:13;12.45;;;6.80;;
35257;SDS011;21385;50.878;8.050;2024-03-07T15:30:39;8.75;;;5.22;;
35257;SDS011;21385;50.878;8.050;2024-03-07T15:33:07;8.18;;;5.40;;